Summer Point, Vermont
Current Conditions -  °F | °C
As of 6:15 PM on Wednesday 17 Dec 2014 (Local Time) from K6B0 Reporting Station
Moderate Rain Moderate Rain  
Wind Chill: 36°   Ceiling: 2000
Heat Index: 36°   Visibility: 3mi
Dew Point: 36°   Wind: 3mph
Humidity: 100%   Direction: 140°SE
Pressure: 29.77"   Gusts: NA
Location:  44.0804°N, 73.3324°W
Report Text: K6B0 172315Z AUTO 14003KT 3SM RA SCT012 OVC020 02/02 A2977 RMK AO2 T00210021
Loading
Personal Weather Stations






























Interactive Weather Map New forecast layout! Learn more

10-Day Weather Forecast

Advertisements
Track Severe Weather on mobile